createdAt,value
2019-06-20T00:01:04.248Z,15.73
2019-06-20T00:03:34.824Z,14.83
2019-06-20T00:06:05.587Z,14.50
2019-06-20T00:08:36.054Z,14.03
2019-06-20T00:11:06.557Z,14.73
2019-06-20T00:13:37.350Z,16.87
2019-06-20T00:16:07.813Z,15.50
2019-06-20T00:18:38.192Z,16.30
2019-06-20T00:21:08.643Z,15.63
2019-06-20T00:23:38.773Z,15.50
2019-06-20T00:26:10.349Z,14.73
2019-06-20T00:28:40.731Z,14.80
2019-06-20T00:31:10.979Z,16.10
2019-06-20T00:33:41.945Z,15.10
2019-06-20T00:36:12.279Z,15.70
2019-06-20T00:38:43.007Z,16.17
2019-06-20T00:41:13.528Z,13.30
2019-06-20T00:43:44.244Z,14.30
2019-06-20T00:46:15.410Z,14.50
2019-06-20T00:48:45.644Z,14.50
2019-06-20T00:51:16.517Z,14.47
2019-06-20T00:53:46.961Z,13.67
2019-06-20T00:56:17.192Z,15.43
2019-06-20T00:58:47.594Z,14.50
2019-06-20T01:01:18.329Z,14.97
2019-06-20T01:03:48.685Z,15.27
2019-06-20T01:06:19.109Z,14.53
2019-06-20T01:08:49.509Z,14.77
2019-06-20T01:11:20.168Z,14.07
2019-06-20T01:13:52.861Z,15.17
2019-06-20T01:16:23.072Z,14.77
2019-06-20T01:18:53.595Z,14.67
2019-06-20T01:21:24.410Z,13.80
2019-06-20T01:23:54.695Z,12.97
2019-06-20T01:26:25.627Z,14.17
2019-06-20T01:28:55.952Z,15.17
2019-06-20T01:31:26.549Z,15.70
2019-06-20T01:33:56.821Z,14.43
2019-06-20T01:36:27.331Z,15.40
2019-06-20T01:38:57.793Z,14.93
2019-06-20T01:41:30.086Z,15.37
2019-06-20T01:44:00.543Z,15.33
2019-06-20T01:46:30.814Z,15.43
2019-06-20T01:49:01.273Z,15.87
2019-06-20T01:51:31.487Z,14.60
2019-06-20T01:54:01.974Z,16.97
2019-06-20T01:56:32.698Z,18.63
2019-06-20T01:59:03.577Z,17.37
2019-06-20T02:01:33.698Z,19.50
2019-06-20T02:04:03.983Z,20.20
2019-06-20T02:06:34.352Z,16.50
2019-06-20T02:09:06.630Z,15.70
2019-06-20T02:11:40.497Z,16.90
2019-06-20T02:14:11.745Z,16.33
2019-06-20T02:16:42.348Z,16.67
2019-06-20T02:19:12.890Z,17.50
2019-06-20T02:21:43.277Z,16.47
2019-06-20T02:24:14.721Z,15.80
2019-06-20T02:26:45.069Z,17.00
2019-06-20T02:29:15.376Z,17.43
2019-06-20T02:31:45.537Z,19.40
2019-06-20T02:34:15.998Z,19.03
2019-06-20T02:36:46.210Z,19.20
2019-06-20T02:39:16.683Z,19.70
2019-06-20T02:41:47.325Z,18.10
2019-06-20T02:44:30.142Z,18.20
2019-06-20T02:46:50.973Z,18.17
2019-06-20T02:49:21.971Z,19.70
2019-06-20T02:51:52.390Z,18.57
2019-06-20T02:54:23.022Z,19.57
2019-06-20T02:56:53.248Z,19.07
2019-06-20T02:59:23.449Z,17.60
2019-06-20T03:01:54.013Z,20.53
2019-06-20T03:04:24.595Z,18.70
2019-06-20T03:06:55.059Z,18.20
2019-06-20T03:09:25.504Z,19.07
2019-06-20T03:11:55.761Z,17.20
2019-06-20T03:14:25.953Z,18.23
2019-06-20T03:16:56.268Z,19.60
2019-06-20T03:19:26.583Z,18.73
2019-06-20T03:21:56.798Z,19.83
2019-06-20T03:24:27.242Z,18.43
2019-06-20T03:26:57.639Z,19.07
2019-06-20T03:29:27.951Z,20.37
2019-06-20T03:31:58.365Z,21.97
2019-06-20T03:34:28.657Z,22.60
2019-06-20T03:36:58.892Z,20.40
2019-06-20T03:39:29.352Z,19.87
2019-06-20T03:41:59.574Z,22.33
2019-06-20T03:44:29.761Z,21.17
2019-06-20T03:47:00.095Z,22.80
2019-06-20T03:49:30.473Z,22.43
2019-06-20T03:52:08.666Z,21.07
2019-06-20T03:54:39.013Z,20.43
2019-06-20T03:57:09.163Z,20.30
2019-06-20T03:59:39.365Z,20.70
2019-06-20T04:02:10.042Z,20.50
2019-06-20T04:04:42.482Z,21.60
2019-06-20T04:07:14.120Z,21.40
2019-06-20T04:09:45.542Z,20.90
2019-06-20T04:12:18.113Z,21.03
2019-06-20T04:14:49.272Z,20.30
2019-06-20T04:17:22.052Z,22.10
2019-06-20T04:19:52.313Z,21.43
2019-06-20T04:22:27.269Z,21.73
2019-06-20T04:24:59.393Z,20.87
2019-06-20T04:27:29.563Z,21.27
2019-06-20T04:30:02.798Z,19.30
2019-06-20T04:32:33.735Z,20.43
2019-06-20T04:35:05.483Z,21.03
2019-06-20T04:37:36.373Z,20.67
2019-06-20T04:40:07.699Z,21.10
2019-06-20T04:42:38.243Z,18.63
2019-06-20T04:45:34.118Z,21.43
2019-06-20T04:47:52.715Z,20.43
2019-06-20T04:50:23.207Z,20.30
2019-06-20T04:52:53.660Z,20.30
2019-06-20T04:55:24.539Z,20.47
2019-06-20T04:57:54.999Z,18.83
2019-06-20T05:00:25.889Z,21.10
2019-06-20T05:02:56.624Z,21.50
2019-06-20T05:05:26.868Z,21.60
2019-06-20T05:07:57.318Z,22.07
2019-06-20T05:10:27.961Z,19.53
2019-06-20T05:12:58.539Z,21.40
2019-06-20T05:15:28.906Z,20.60
2019-06-20T05:17:59.026Z,21.30
2019-06-20T05:20:29.254Z,21.73
2019-06-20T05:22:59.467Z,19.80
2019-06-20T05:25:34.642Z,21.50
2019-06-20T05:28:06.648Z,21.03
2019-06-20T05:30:55.884Z,21.13
2019-06-20T05:33:26.454Z,21.20
2019-06-20T05:35:56.582Z,22.13
2019-06-20T05:38:26.993Z,24.03
2019-06-20T05:40:58.052Z,28.17
2019-06-20T05:43:28.697Z,26.20
2019-06-20T05:46:09.249Z,26.63
2019-06-20T05:48:33.990Z,27.20
2019-06-20T05:51:04.318Z,25.27
2019-06-20T05:53:34.462Z,22.50
2019-06-20T05:56:04.822Z,21.30
2019-06-20T05:58:35.086Z,20.37
2019-06-20T06:01:05.532Z,18.90
2019-06-20T06:03:35.828Z,19.20
2019-06-20T06:06:06.509Z,21.00
2019-06-20T06:08:36.789Z,19.87
2019-06-20T06:11:08.567Z,20.00
2019-06-20T06:13:38.825Z,19.40
2019-06-20T06:16:22.580Z,19.60
2019-06-20T06:18:41.111Z,18.83
2019-06-20T06:21:11.792Z,20.77
2019-06-20T06:23:42.029Z,19.27
2019-06-20T06:26:12.627Z,19.60
2019-06-20T06:28:42.689Z,20.43
2019-06-20T06:31:12.932Z,18.53
2019-06-20T06:33:43.108Z,20.00
2019-06-20T06:36:13.371Z,19.50
2019-06-20T06:38:44.089Z,19.97
2019-06-20T06:41:14.244Z,19.10
2019-06-20T06:43:44.535Z,19.93
2019-06-20T06:46:14.791Z,17.83
2019-06-20T06:48:45.085Z,19.40
2019-06-20T06:51:16.011Z,20.17
2019-06-20T06:53:46.330Z,22.03
2019-06-20T06:56:16.535Z,20.13
2019-06-20T06:58:46.844Z,17.50
2019-06-20T07:01:17.116Z,17.90
2019-06-20T07:03:47.348Z,17.17
2019-06-20T07:06:17.608Z,17.80
2019-06-20T07:08:47.763Z,19.00
2019-06-20T07:11:18.145Z,18.50
2019-06-20T07:13:48.397Z,19.47
2019-06-20T07:16:18.794Z,19.00
2019-06-20T07:18:48.976Z,18.63
2019-06-20T07:21:19.255Z,17.33
2019-06-20T07:23:49.805Z,14.73
2019-06-20T07:26:20.361Z,16.30
2019-06-20T07:28:51.589Z,17.43
2019-06-20T07:31:21.866Z,15.70
2019-06-20T07:33:52.132Z,17.50
2019-06-20T07:36:22.428Z,16.77
2019-06-20T07:38:52.839Z,18.80
2019-06-20T07:41:23.117Z,18.67
2019-06-20T07:43:53.341Z,16.40
2019-06-20T07:46:23.610Z,13.87
2019-06-20T07:48:53.834Z,15.07
2019-06-20T07:51:24.203Z,15.60
2019-06-20T07:53:54.410Z,14.03
2019-06-20T07:56:24.879Z,13.37
2019-06-20T07:58:55.242Z,13.53
2019-06-20T08:01:25.462Z,13.07
2019-06-20T08:03:56.914Z,12.73
2019-06-20T08:06:27.757Z,13.57
2019-06-20T08:08:58.485Z,12.90
2019-06-20T08:11:29.439Z,12.33
2019-06-20T08:14:01.703Z,10.70
2019-06-20T08:16:32.208Z,9.40
2019-06-20T08:19:02.691Z,9.10
2019-06-20T08:21:33.610Z,10.20
2019-06-20T08:24:04.197Z,11.07
2019-06-20T08:26:34.420Z,8.30
2019-06-20T08:29:19.714Z,8.77
2019-06-20T08:31:37.747Z,9.40
2019-06-20T08:34:08.513Z,8.70
2019-06-20T08:36:40.087Z,8.90
2019-06-20T08:39:10.710Z,9.37
2019-06-20T08:41:40.874Z,15.20
2019-06-20T08:44:12.546Z,10.70
2019-06-20T08:46:42.736Z,10.97
2019-06-20T08:49:13.102Z,11.50
2019-06-20T08:51:43.477Z,11.50
2019-06-20T08:54:14.034Z,11.30
2019-06-20T08:56:45.581Z,10.37
2019-06-20T08:59:24.246Z,9.80
2019-06-20T09:01:48.025Z,11.13
2019-06-20T09:04:18.267Z,10.90
2019-06-20T09:06:50.164Z,9.67
2019-06-20T09:09:20.585Z,9.73
2019-06-20T09:11:51.800Z,10.00
2019-06-20T09:14:22.074Z,10.00
2019-06-20T09:16:52.281Z,10.20
2019-06-20T09:19:23.304Z,10.73
2019-06-20T09:21:54.175Z,10.10
2019-06-20T09:24:24.370Z,9.50
2019-06-20T09:26:55.425Z,9.20
2019-06-20T09:29:38.347Z,10.97
2019-06-20T09:31:58.563Z,9.00
2019-06-20T09:34:29.466Z,9.33
2019-06-20T09:36:59.609Z,10.10
2019-06-20T09:39:29.715Z,8.73
2019-06-20T09:42:00.069Z,9.07
2019-06-20T09:44:30.526Z,8.67
2019-06-20T09:47:00.659Z,9.30
2019-06-20T09:49:31.187Z,7.67
2019-06-20T09:52:01.623Z,9.27
2019-06-20T09:54:31.921Z,8.90
2019-06-20T09:57:02.096Z,8.47
2019-06-20T09:59:32.549Z,9.77
2019-06-20T10:02:03.016Z,8.70
2019-06-20T10:04:33.313Z,8.53
2019-06-20T10:07:03.685Z,13.53
2019-06-20T10:09:33.950Z,9.33
2019-06-20T10:12:04.452Z,9.80
2019-06-20T10:14:35.719Z,9.30
2019-06-20T10:17:06.037Z,9.27
2019-06-20T10:19:36.173Z,9.90
2019-06-20T10:22:06.633Z,8.10
2019-06-20T10:24:36.942Z,9.47
2019-06-20T10:27:07.469Z,8.87
2019-06-20T10:29:37.895Z,9.07
2019-06-20T10:32:08.218Z,8.80
2019-06-20T10:34:38.974Z,8.80
2019-06-20T10:37:09.164Z,8.63
2019-06-20T10:39:39.321Z,8.50
2019-06-20T10:42:09.687Z,8.20
2019-06-20T10:44:40.137Z,8.10
2019-06-20T10:47:13.281Z,7.80
2019-06-20T10:49:44.597Z,8.00
2019-06-20T10:52:16.030Z,9.13
2019-06-20T10:54:47.069Z,7.77
2019-06-20T10:57:18.202Z,7.37
2019-06-20T10:59:48.589Z,7.97
2019-06-20T11:02:19.367Z,7.50
2019-06-20T11:04:50.264Z,7.40
2019-06-20T11:07:20.686Z,8.33
2019-06-20T11:09:50.864Z,7.70
2019-06-20T11:12:21.728Z,6.77
2019-06-20T11:14:51.927Z,6.43
2019-06-20T11:17:22.441Z,6.37
2019-06-20T11:19:54.216Z,5.50
2019-06-20T11:22:24.684Z,6.80
2019-06-20T11:24:56.897Z,5.53
2019-06-20T11:27:27.023Z,6.30
2019-06-20T11:29:57.360Z,5.00
2019-06-20T11:32:28.009Z,5.77
2019-06-20T11:34:58.210Z,4.63
2019-06-20T11:37:28.301Z,5.57
2019-06-20T11:39:58.861Z,4.73
2019-06-20T11:42:29.309Z,4.83
2019-06-20T11:44:59.658Z,4.83
2019-06-20T11:47:30.335Z,5.60
2019-06-20T11:50:01.069Z,5.33
2019-06-20T11:52:36.902Z,5.20
2019-06-20T11:55:05.264Z,5.40
2019-06-20T11:57:36.537Z,5.77
2019-06-20T12:00:09.020Z,5.10
2019-06-20T12:02:40.514Z,28.67
2019-06-20T12:05:11.864Z,6.33
2019-06-20T12:07:45.508Z,5.47
2019-06-20T12:10:16.390Z,6.10
2019-06-20T12:12:46.930Z,5.20
2019-06-20T12:15:18.626Z,4.67
2019-06-20T12:17:49.446Z,5.63
2019-06-20T12:20:21.552Z,5.70
2019-06-20T12:22:52.410Z,7.80
2019-06-20T12:25:22.860Z,4.47
2019-06-20T12:27:53.111Z,4.60
2019-06-20T12:30:23.446Z,5.17
2019-06-20T12:32:54.208Z,4.63
2019-06-20T12:35:24.671Z,5.30
2019-06-20T12:37:55.094Z,4.10
2019-06-20T12:40:26.541Z,4.10
2019-06-20T12:42:57.679Z,4.00
2019-06-20T12:45:27.881Z,4.47
2019-06-20T12:47:58.168Z,4.20
2019-06-20T12:50:28.518Z,4.10
2019-06-20T12:53:00.495Z,4.90
2019-06-20T12:55:31.422Z,4.40
2019-06-20T12:58:01.614Z,3.83
2019-06-20T13:00:32.755Z,3.63
2019-06-20T13:03:02.989Z,4.50
2019-06-20T13:05:33.310Z,4.47
2019-06-20T13:08:03.632Z,4.00
2019-06-20T13:10:34.908Z,12.73
2019-06-20T13:13:05.087Z,5.53
2019-06-20T13:15:35.915Z,10.83
2019-06-20T13:18:06.269Z,3.43
2019-06-20T13:20:38.802Z,3.70
2019-06-20T13:23:10.103Z,3.80
2019-06-20T13:25:40.966Z,3.50
2019-06-20T13:28:12.561Z,3.60
2019-06-20T13:30:47.224Z,4.10
2019-06-20T13:33:15.220Z,3.60
2019-06-20T13:35:45.543Z,3.30
2019-06-20T13:38:15.870Z,4.33
2019-06-20T13:40:47.229Z,3.60
2019-06-20T13:43:17.438Z,3.50
2019-06-20T13:45:47.590Z,4.33
2019-06-20T13:48:18.533Z,3.83
2019-06-20T13:50:49.671Z,3.97
2019-06-20T13:53:20.013Z,4.17
2019-06-20T13:55:50.386Z,4.00
2019-06-20T13:58:23.833Z,3.60
2019-06-20T14:00:54.696Z,4.10
2019-06-20T14:03:25.081Z,3.83
2019-06-20T14:05:55.912Z,3.93
2019-06-20T14:08:26.400Z,3.67
2019-06-20T14:10:56.786Z,3.93
2019-06-20T14:13:26.945Z,4.00
2019-06-20T14:15:57.736Z,3.53
2019-06-20T14:18:27.874Z,4.07
2019-06-20T14:20:58.389Z,4.10
2019-06-20T14:23:28.539Z,2.90
2019-06-20T14:25:58.849Z,4.20
2019-06-20T14:28:29.071Z,3.93
2019-06-20T14:30:59.274Z,3.90
2019-06-20T14:33:31.859Z,4.17
2019-06-20T14:36:01.687Z,3.70
2019-06-20T14:38:31.909Z,4.13
2019-06-20T14:41:02.035Z,4.83
2019-06-20T14:43:32.466Z,4.13
2019-06-20T14:46:02.927Z,4.00
2019-06-20T14:48:33.064Z,4.40
2019-06-20T14:51:03.358Z,3.87
2019-06-20T14:53:33.486Z,3.50
2019-06-20T14:56:03.861Z,4.23
2019-06-20T14:58:34.042Z,3.77
2019-06-20T15:01:04.265Z,4.70
2019-06-20T15:03:34.788Z,3.97
2019-06-20T15:06:05.402Z,4.27
2019-06-20T15:08:35.799Z,5.00
2019-06-20T15:11:06.318Z,3.93
2019-06-20T15:13:36.508Z,4.33
2019-06-20T15:16:07.111Z,4.30
2019-06-20T15:18:37.428Z,4.17
2019-06-20T15:21:07.760Z,4.43
2019-06-20T15:23:38.155Z,4.27
2019-06-20T15:26:08.750Z,4.27
2019-06-20T15:28:38.966Z,3.60
2019-06-20T15:31:09.522Z,3.80
2019-06-20T15:33:40.223Z,4.17
2019-06-20T15:36:10.671Z,3.73
2019-06-20T15:38:41.976Z,4.03
2019-06-20T15:41:12.595Z,4.17
2019-06-20T15:43:43.090Z,3.93
2019-06-20T15:46:13.337Z,4.17
2019-06-20T15:48:43.545Z,4.10
2019-06-20T15:51:13.858Z,3.73
2019-06-20T15:53:44.127Z,4.40
2019-06-20T15:56:14.246Z,3.80
2019-06-20T15:58:44.595Z,5.40
2019-06-20T16:01:15.322Z,3.97
2019-06-20T16:03:45.794Z,5.23
2019-06-20T16:06:16.147Z,4.90
2019-06-20T16:08:50.042Z,4.40
2019-06-20T16:11:20.245Z,4.13
2019-06-20T16:13:50.384Z,4.90
2019-06-20T16:16:21.780Z,5.03
2019-06-20T16:18:51.984Z,5.27
2019-06-20T16:21:22.160Z,4.40
2019-06-20T16:23:52.775Z,5.27
2019-06-20T16:26:25.578Z,5.20
2019-06-20T16:28:56.066Z,4.20
2019-06-20T16:31:27.280Z,5.90
2019-06-20T16:33:57.594Z,5.60
2019-06-20T16:36:28.692Z,9.60
2019-06-20T16:39:01.159Z,4.80
2019-06-20T16:41:33.327Z,5.43
2019-06-20T16:44:03.787Z,5.13
2019-06-20T16:46:34.009Z,4.93
2019-06-20T16:49:04.147Z,4.73
2019-06-20T16:51:34.345Z,5.00
2019-06-20T16:54:04.798Z,5.97
2019-06-20T16:56:35.691Z,6.20
2019-06-20T16:59:07.177Z,5.80
2019-06-20T17:01:37.863Z,5.00
2019-06-20T17:04:08.103Z,4.93
2019-06-20T17:06:38.349Z,5.37
2019-06-20T17:09:10.044Z,4.97
2019-06-20T17:11:40.373Z,5.10
2019-06-20T17:14:10.488Z,4.30
2019-06-20T17:16:41.241Z,4.90
2019-06-20T17:19:11.790Z,4.70
2019-06-20T17:21:42.179Z,4.00
2019-06-20T17:24:12.273Z,4.70
2019-06-20T17:26:42.574Z,5.37
2019-06-20T17:29:13.377Z,4.77
2019-06-20T17:31:43.723Z,3.87
2019-06-20T17:34:14.199Z,4.40
2019-06-20T17:36:44.761Z,4.23
2019-06-20T17:39:15.187Z,4.63
2019-06-20T17:41:54.943Z,5.03
2019-06-20T17:44:17.548Z,4.33
2019-06-20T17:46:48.010Z,4.07
2019-06-20T17:49:18.375Z,4.00
2019-06-20T17:51:48.512Z,4.60
2019-06-20T17:54:19.029Z,4.47
2019-06-20T17:56:49.420Z,4.27
2019-06-20T17:59:22.674Z,4.50
2019-06-20T18:01:51.641Z,4.87
2019-06-20T18:04:21.853Z,4.80
2019-06-20T18:06:52.278Z,4.20
2019-06-20T18:09:22.460Z,4.40
2019-06-20T18:11:52.812Z,4.33
2019-06-20T18:14:23.201Z,4.47
2019-06-20T18:16:53.635Z,3.80
2019-06-20T18:19:24.069Z,4.57
2019-06-20T18:21:55.160Z,4.33
2019-06-20T18:24:25.929Z,4.00
2019-06-20T18:26:56.376Z,4.43
2019-06-20T18:29:27.034Z,4.43
2019-06-20T18:31:57.365Z,4.67
2019-06-20T18:34:30.310Z,4.13
2019-06-20T18:37:01.189Z,4.37
2019-06-20T18:39:33.153Z,4.63
2019-06-20T18:42:03.764Z,4.37
2019-06-20T18:44:34.331Z,3.83
2019-06-20T18:47:04.838Z,5.03
2019-06-20T18:49:35.566Z,4.00
2019-06-20T18:52:06.172Z,4.87
2019-06-20T18:54:36.400Z,4.17
2019-06-20T18:57:08.902Z,4.53
2019-06-20T18:59:39.465Z,5.00
2019-06-20T19:02:10.047Z,4.13
2019-06-20T19:04:47.725Z,5.03
2019-06-20T19:07:13.454Z,5.70
2019-06-20T19:09:43.932Z,4.80
2019-06-20T19:12:14.470Z,5.00
2019-06-20T19:14:44.755Z,4.90
2019-06-20T19:17:15.274Z,5.37
2019-06-20T19:19:45.651Z,5.70
2019-06-20T19:22:15.955Z,6.10
2019-06-20T19:24:46.528Z,5.20
2019-06-20T19:27:17.035Z,5.37
2019-06-20T19:29:49.667Z,4.93
2019-06-20T19:32:19.506Z,4.90
2019-06-20T19:35:01.428Z,4.70
2019-06-20T19:37:23.367Z,4.47
2019-06-20T19:39:53.851Z,4.10
2019-06-20T19:42:25.202Z,4.37
2019-06-20T19:44:55.537Z,4.80
2019-06-20T19:47:26.895Z,4.50
2019-06-20T19:49:57.491Z,4.30
2019-06-20T19:52:27.905Z,3.90
2019-06-20T19:54:58.717Z,4.53
2019-06-20T19:57:29.179Z,3.87
2019-06-20T20:00:01.019Z,3.87
2019-06-20T20:02:31.605Z,4.80
2019-06-20T20:05:17.803Z,3.33
2019-06-20T20:07:35.404Z,3.70
2019-06-20T20:10:07.067Z,3.53
2019-06-20T20:12:37.688Z,3.40
2019-06-20T20:15:09.152Z,2.90
2019-06-20T20:17:41.818Z,3.37
2019-06-20T20:20:12.425Z,3.07
2019-06-20T20:22:42.848Z,3.10
2019-06-20T20:25:13.268Z,3.40
2019-06-20T20:27:43.747Z,3.30
2019-06-20T20:30:16.166Z,3.07
2019-06-20T20:32:46.801Z,3.10
2019-06-20T20:35:17.244Z,3.03
2019-06-20T20:37:47.533Z,3.17
2019-06-20T20:40:18.255Z,3.40
2019-06-20T20:42:48.704Z,4.20
2019-06-20T20:45:19.454Z,4.40
2019-06-20T20:47:49.681Z,47.57
2019-06-20T20:50:20.100Z,3.40
2019-06-20T20:52:50.453Z,3.40
2019-06-20T20:55:21.452Z,3.50
2019-06-20T20:57:51.804Z,3.23
2019-06-20T21:00:25.536Z,3.97
2019-06-20T21:02:56.280Z,3.63
2019-06-20T21:05:26.891Z,3.80
2019-06-20T21:07:57.291Z,3.80
2019-06-20T21:10:28.130Z,4.10
2019-06-20T21:12:58.358Z,4.93
2019-06-20T21:15:28.833Z,4.03
2019-06-20T21:17:59.763Z,5.07
2019-06-20T21:20:32.056Z,5.00
2019-06-20T21:23:02.710Z,5.00
2019-06-20T21:25:33.463Z,4.30
2019-06-20T21:28:03.766Z,4.40
2019-06-20T21:30:34.087Z,4.87
2019-06-20T21:33:04.376Z,4.77
2019-06-20T21:35:34.851Z,4.80
2019-06-20T21:38:05.278Z,5.00
2019-06-20T21:40:35.550Z,4.80
2019-06-20T21:43:06.040Z,4.80
2019-06-20T21:45:36.607Z,4.80
2019-06-20T21:48:07.510Z,5.57
2019-06-20T21:50:37.825Z,5.70
2019-06-20T21:53:08.179Z,5.00
2019-06-20T21:55:38.889Z,4.83
2019-06-20T21:58:09.730Z,4.63
2019-06-20T22:00:45.058Z,4.50
2019-06-20T22:03:16.013Z,4.97
2019-06-20T22:05:46.744Z,5.00
2019-06-20T22:08:17.250Z,5.03
2019-06-20T22:10:49.383Z,5.10
2019-06-20T22:13:19.765Z,4.90
2019-06-20T22:15:50.350Z,5.60
2019-06-20T22:18:20.964Z,5.50
2019-06-20T22:20:52.695Z,5.90
2019-06-20T22:23:23.707Z,5.33
2019-06-20T22:25:53.811Z,5.23
2019-06-20T22:28:24.531Z,5.60
2019-06-20T22:30:55.704Z,6.00
2019-06-20T22:33:26.794Z,5.53
2019-06-20T22:35:57.224Z,5.80
2019-06-20T22:38:27.560Z,4.73
2019-06-20T22:41:00.446Z,5.00
2019-06-20T22:43:30.666Z,4.40
2019-06-20T22:46:01.475Z,4.50
2019-06-20T22:48:34.323Z,4.27
2019-06-20T22:51:07.242Z,3.70
2019-06-20T22:53:37.676Z,3.50
2019-06-20T22:56:08.060Z,3.93
2019-06-20T22:58:38.560Z,3.60
2019-06-20T23:01:09.116Z,3.80
2019-06-20T23:03:39.774Z,3.70
2019-06-20T23:06:10.122Z,3.80
2019-06-20T23:08:40.324Z,3.73
2019-06-20T23:11:10.590Z,3.77
2019-06-20T23:13:41.038Z,3.43
2019-06-20T23:16:11.554Z,3.10
2019-06-20T23:18:41.722Z,3.40
2019-06-20T23:21:11.983Z,3.53
2019-06-20T23:23:42.331Z,3.10
2019-06-20T23:26:13.803Z,4.03
2019-06-20T23:28:45.510Z,4.03
2019-06-20T23:31:15.890Z,3.30
2019-06-20T23:33:46.957Z,3.57
2019-06-20T23:36:17.167Z,3.30
2019-06-20T23:38:48.744Z,3.17
2019-06-20T23:41:19.048Z,3.13
2019-06-20T23:43:49.288Z,3.37
2019-06-20T23:46:19.877Z,3.63
2019-06-20T23:48:50.616Z,3.20
2019-06-20T23:51:25.585Z,3.20
2019-06-20T23:53:54.535Z,3.27
2019-06-20T23:56:24.760Z,3.30
2019-06-20T23:58:55.119Z,3.20
